Time;durP1;ratioP1;P1;durP2;ratioP2;P2;SDS_P1;SDS_P2;PMS_P1;PMS_P2;Temp;Humidity;BMP_temperature;BMP_pressure;BME280_temperature;BME280_humidity;BME280_pressure;Samples;Min_cycle;Max_cycle;Signal;HPM_P1;HPM_P2
2022/08/17 00:00:36;;;;;;;;;31.75;24.00;;;;;20.90;79.82;100615.31;5076499;27;45389;-75
2022/08/17 00:03:08;;;;;;;;;29.00;23.75;;;;;20.90;79.74;100613.50;5077995;27;45397;-75
2022/08/17 00:05:43;;;;;;;;;26.75;23.00;;;;;20.91;79.86;100611.72;5077105;27;46421;-75
2022/08/17 00:08:10;;;;;;;;;31.50;26.25;;;;;20.91;79.52;100598.47;5076493;28;45457;-75
2022/08/17 00:10:36;;;;;;;;;28.50;23.75;;;;;20.92;79.56;100600.19;5076365;28;45526;-76
2022/08/17 00:13:06;;;;;;;;;28.50;24.00;;;;;20.89;79.61;100603.88;5076483;28;45432;-76
2022/08/17 00:15:32;;;;;;;;;27.25;24.75;;;;;20.90;79.70;100592.34;5077449;27;46721;-76
2022/08/17 00:17:57;;;;;;;;;23.75;22.50;;;;;20.90;79.34;100589.72;5076781;27;65405;-76
2022/08/17 00:20:22;;;;;;;;;26.00;21.25;;;;;20.90;79.73;100583.56;5076606;28;56538;-76
2022/08/17 00:22:48;;;;;;;;;24.00;22.25;;;;;20.87;79.69;100574.88;5076375;28;69425;-76
2022/08/17 00:25:18;;;;;;;;;27.00;22.75;;;;;20.87;80.01;100574.88;5076265;28;75536;-76
2022/08/17 00:27:44;;;;;;;;;24.25;21.25;;;;;20.84;79.80;100572.50;5076041;27;45806;-76
2022/08/17 00:30:11;;;;;;;;;26.75;23.25;;;;;20.85;79.80;100571.50;5076153;28;45274;-76
2022/08/17 00:32:42;;;;;;;;;23.50;20.00;;;;;20.86;79.63;100567.09;5077146;27;45469;-76
2022/08/17 00:35:09;;;;;;;;;24.25;23.25;;;;;20.85;79.83;100570.69;5076545;27;45459;-76
2022/08/17 00:37:34;;;;;;;;;27.00;25.25;;;;;20.84;79.79;100563.72;5076067;28;45417;-76
2022/08/17 00:39:59;;;;;;;;;31.75;25.75;;;;;20.84;80.03;100569.00;5076138;28;69862;-76
2022/08/17 00:42:25;;;;;;;;;29.00;23.25;;;;;20.85;79.81;100566.22;5076132;28;69757;-76
2022/08/17 00:44:50;;;;;;;;;35.00;27.25;;;;;20.85;79.90;100565.38;5076598;28;60876;-76
2022/08/17 00:47:16;;;;;;;;;30.75;23.25;;;;;20.83;80.14;100560.22;5075739;27;73227;-76
2022/08/17 00:49:41;;;;;;;;;27.25;23.00;;;;;20.84;80.08;100558.44;5076891;27;45305;-76
2022/08/17 00:52:14;;;;;;;;;24.50;23.00;;;;;20.84;80.22;100558.44;5076155;27;66192;-76
2022/08/17 00:54:41;;;;;;;;;26.75;25.25;;;;;20.84;80.38;100563.72;5075382;28;47498;-76
2022/08/17 00:57:10;;;;;;;;;26.25;22.00;;;;;20.84;80.33;100566.38;5075691;28;45794;-75
2022/08/17 00:59:39;;;;;;;;;27.25;24.50;;;;;20.82;80.18;100562.97;5075626;28;45424;-75
2022/08/17 01:02:05;;;;;;;;;23.00;21.50;;;;;20.80;80.18;100557.81;5074431;28;45500;-75
2022/08/17 01:04:32;;;;;;;;;27.00;25.75;;;;;20.79;80.50;100556.09;5074942;27;48517;-75
2022/08/17 01:06:57;;;;;;;;;25.75;22.50;;;;;20.80;80.35;100578.09;5075513;28;45434;-75
2022/08/17 01:09:23;;;;;;;;;26.75;22.00;;;;;20.79;80.19;100576.44;5074571;27;67318;-75
2022/08/17 01:11:50;;;;;;;;;28.75;23.25;;;;;20.80;80.38;100583.41;5075343;27;45465;-75
2022/08/17 01:14:18;;;;;;;;;24.50;22.00;;;;;20.80;80.29;100578.97;5075421;28;46255;-75
2022/08/17 01:16:44;;;;;;;;;23.75;23.75;;;;;20.79;80.19;100582.56;5075373;27;45323;-75
2022/08/17 01:19:37;;;;;;;;;28.25;22.00;;;;;20.78;79.89;100574.75;5074989;28;45284;-74
2022/08/17 01:22:13;;;;;;;;;24.75;20.00;;;;;20.78;80.06;100569.44;5075501;27;45721;-75
2022/08/17 01:24:44;;;;;;;;;25.25;20.25;;;;;20.77;80.02;100570.41;5076585;27;45644;-75
2022/08/17 01:27:12;;;;;;;;;29.50;22.25;;;;;20.75;80.21;100575.81;5075003;27;45841;-75
2022/08/17 01:29:40;;;;;;;;;22.00;19.00;;;;;20.74;80.10;100575.94;5075429;28;45420;-75
2022/08/17 01:32:06;;;;;;;;;23.25;19.50;;;;;20.73;80.13;100583.03;5074806;28;45552;-75
2022/08/17 01:34:32;;;;;;;;;28.25;22.25;;;;;20.71;80.84;100573.50;5074770;27;46151;-75
2022/08/17 01:36:58;;;;;;;;;20.00;19.00;;;;;20.73;79.58;100571.59;5076326;27;45476;-75
2022/08/17 01:39:31;;;;;;;;;20.00;18.75;;;;;20.71;79.94;100566.44;5076249;28;45285;-75
2022/08/17 01:42:08;;;;;;;;;17.75;16.25;;;;;20.72;79.63;100568.09;5076193;27;45267;-75
2022/08/17 01:44:34;;;;;;;;;20.00;18.50;;;;;20.71;79.45;100573.50;5074876;28;45472;-75
2022/08/17 01:46:59;;;;;;;;;21.75;17.75;;;;;20.68;79.79;100569.28;5074610;28;73135;-75
2022/08/17 01:49:25;;;;;;;;;25.25;22.75;;;;;20.65;79.80;100580.09;5075206;27;66785;-75
2022/08/17 01:51:50;;;;;;;;;24.25;17.75;;;;;20.61;79.74;100581.28;5075080;27;68836;-75
2022/08/17 01:54:17;;;;;;;;;22.75;19.25;;;;;20.56;79.58;100576.31;5074495;28;47416;-75
2022/08/17 01:56:46;;;;;;;;;27.00;20.00;;;;;20.55;79.66;100585.19;5074685;28;45348;-76
2022/08/17 01:59:12;;;;;;;;;23.50;20.75;;;;;20.53;79.72;100586.25;5074741;28;45357;-75
2022/08/17 02:01:37;;;;;;;;;26.25;21.00;;;;;20.52;80.12;100587.22;5074405;28;45484;-76
2022/08/17 02:04:05;;;;;;;;;21.75;20.00;;;;;20.50;79.97;100584.66;5075764;27;46051;-75
2022/08/17 02:06:33;;;;;;;;;24.00;16.25;;;;;20.48;79.92;100576.84;5075754;27;45455;-75
2022/08/17 02:08:58;;;;;;;;;25.00;19.50;;;;;20.47;80.00;100580.47;5074731;28;45409;-75
2022/08/17 02:11:24;;;;;;;;;20.25;19.00;;;;;20.45;80.12;100582.38;5074781;27;70390;-76
2022/08/17 02:13:50;;;;;;;;;23.00;18.25;;;;;20.43;79.78;100584.28;5076936;27;75725;-75
2022/08/17 02:16:15;;;;;;;;;22.00;19.75;;;;;20.38;79.80;100586.41;5079005;27;45852;-75
2022/08/17 02:18:41;;;;;;;;;21.75;18.50;;;;;20.37;80.06;100589.16;5079417;28;45231;-75
2022/08/17 02:21:07;;;;;;;;;24.00;19.00;;;;;20.37;80.41;100589.16;5079249;27;45281;-76
2022/08/17 02:23:35;;;;;;;;;24.50;18.50;;;;;20.35;79.64;100580.50;5079230;27;47482;-75
2022/08/17 02:26:00;;;;;;;;;21.00;19.75;;;;;20.33;80.14;100582.44;5078000;27;45302;-76
2022/08/17 02:28:27;;;;;;;;;19.75;18.25;;;;;20.31;79.98;100591.28;5077985;28;45359;-76
2022/08/17 02:30:53;;;;;;;;;26.00;21.75;;;;;20.29;79.87;100595.00;5078906;27;45586;-75
2022/08/17 02:33:18;;;;;;;;;21.25;18.75;;;;;20.28;80.37;100601.25;5078924;28;45415;-75
2022/08/17 02:35:44;;;;;;;;;24.75;17.25;;;;;20.26;80.08;100600.50;5078855;27;45355;-76
2022/08/17 02:38:09;;;;;;;;;19.00;16.75;;;;;20.27;80.28;100592.47;5078424;28;69323;-75
2022/08/17 02:40:36;;;;;;;;;17.25;16.25;;;;;20.25;79.98;100599.69;5077683;28;45505;-76
2022/08/17 02:43:02;;;;;;;;;17.50;15.50;;;;;20.22;79.64;100597.25;5077961;27;46000;-76
2022/08/17 02:45:28;;;;;;;;;20.75;18.25;;;;;20.21;80.01;100611.44;5078652;27;45445;-75
2022/08/17 02:47:54;;;;;;;;;16.50;16.00;;;;;20.20;80.11;100599.16;5078882;27;45432;-75
2022/08/17 02:50:21;;;;;;;;;21.50;18.75;;;;;20.16;79.51;100602.97;5078918;27;45480;-75
2022/08/17 02:52:48;;;;;;;;;25.50;20.50;;;;;20.13;80.10;100620.84;5077612;27;46124;-75
2022/08/17 02:55:22;;;;;;;;;22.75;21.00;;;;;20.09;80.63;100607.84;5077504;28;45721;-76
2022/08/17 02:57:48;;;;;;;;;23.75;21.25;;;;;20.16;80.42;100621.47;5079003;27;45319;-75
2022/08/17 03:00:27;;;;;;;;;21.25;18.75;;;;;20.17;80.81;100612.59;5078375;27;45501;-76
2022/08/17 03:02:55;;;;;;;;;19.00;17.00;;;;;20.23;80.66;100611.31;5078718;27;47321;-75
2022/08/17 03:05:23;;;;;;;;;22.25;18.25;;;;;20.27;80.69;100610.13;5078714;27;45492;-76
2022/08/17 03:07:48;;;;;;;;;17.75;14.25;;;;;20.27;80.59;100600.41;5078735;28;45458;-76
2022/08/17 03:10:13;;;;;;;;;17.00;17.00;;;;;20.29;80.69;100595.84;5078380;27;50025;-75
2022/08/17 03:12:40;;;;;;;;;19.50;18.00;;;;;20.34;80.48;100590.25;5077408;28;75211;-75
2022/08/17 03:15:09;;;;;;;;;23.25;20.25;;;;;20.33;80.86;100588.53;5076909;28;45670;-75
2022/08/17 03:17:34;;;;;;;;;18.00;16.00;;;;;20.35;80.79;100581.34;5078574;27;45368;-75
2022/08/17 03:20:00;;;;;;;;;22.75;17.25;;;;;20.38;80.36;100575.00;5077360;28;70408;-75
2022/08/17 03:22:26;;;;;;;;;22.75;18.50;;;;;20.38;80.47;100575.00;5078033;27;48680;-75
2022/08/17 03:24:51;;;;;;;;;22.25;18.25;;;;;20.33;80.50;100579.78;5075864;27;45520;-75
2022/08/17 03:27:17;;;;;;;;;23.75;17.50;;;;;20.31;80.23;100580.72;5078305;28;45297;-76
2022/08/17 03:29:42;;;;;;;;;23.25;18.25;;;;;20.30;80.07;100580.84;5076078;28;63769;-76
2022/08/17 03:32:12;;;;;;;;;23.75;20.00;;;;;20.31;80.70;100570.16;5077179;28;73133;-75
2022/08/17 03:34:37;;;;;;;;;20.75;17.00;;;;;20.33;80.49;100558.63;5076799;27;45892;-75
2022/08/17 03:37:02;;;;;;;;;17.50;16.00;;;;;20.35;80.52;100562.00;5077511;28;59704;-76
2022/08/17 03:39:28;;;;;;;;;15.50;14.50;;;;;20.33;79.38;100561.28;5078348;28;45490;-76
2022/08/17 03:41:59;;;;;;;;;19.00;16.25;;;;;20.33;80.18;100563.91;5077569;28;55759;-75
2022/08/17 03:44:25;;;;;;;;;18.50;16.00;;;;;20.34;80.25;100565.59;5077655;28;45317;-76
2022/08/17 03:57:47;;;;;;;;;26.25;19.00;;;;;20.37;81.08;100573.31;5077528;27;45366;-75
2022/08/17 04:00:13;;;;;;;;;19.50;19.00;;;;;20.37;80.69;100568.84;5077838;27;45357;-76
2022/08/17 04:02:39;;;;;;;;;21.50;18.25;;;;;20.39;80.55;100577.53;5077596;27;46360;-75
2022/08/17 04:05:04;;;;;;;;;17.75;16.50;;;;;20.36;80.16;100576.94;5076335;28;45349;-76
2022/08/17 04:07:30;;;;;;;;;17.25;16.00;;;;;20.36;80.55;100582.22;5076440;27;45290;-75
2022/08/17 04:09:56;;;;;;;;;20.50;17.25;;;;;20.37;80.38;100584.72;5077706;27;45364;-75
2022/08/17 04:12:22;;;;;;;;;19.00;18.25;;;;;20.41;80.19;100590.63;5077202;27;45376;-75
2022/08/17 04:14:48;;;;;;;;;22.50;17.25;;;;;20.43;80.56;100591.34;5077607;27;45369;-75
2022/08/17 04:17:13;;;;;;;;;21.00;18.50;;;;;20.44;80.44;100587.78;5076585;27;70100;-75
2022/08/17 04:19:39;;;;;;;;;22.75;16.25;;;;;20.42;79.85;100594.97;5077579;27;45337;-75
2022/08/17 04:22:04;;;;;;;;;19.00;16.00;;;;;20.43;80.20;100605.44;5076437;27;72030;-75
2022/08/17 04:24:30;;;;;;;;;21.50;16.00;;;;;20.44;80.12;100608.91;5077235;27;45488;-76
2022/08/17 04:26:56;;;;;;;;;19.00;17.00;;;;;20.45;80.20;100607.97;5075922;27;45369;-76
2022/08/17 04:29:21;;;;;;;;;18.75;15.00;;;;;20.44;80.31;100601.81;5077414;27;45391;-77
2022/08/17 04:31:47;;;;;;;;;19.75;17.50;;;;;20.44;80.31;100598.34;5075905;27;76593;-76
2022/08/17 04:34:12;;;;;;;;;17.50;17.50;;;;;20.44;80.01;100593.06;5077230;28;45421;-76
2022/08/17 04:36:37;;;;;;;;;21.00;18.00;;;;;20.44;79.95;100591.25;5074675;28;68858;-76
2022/08/17 04:39:03;;;;;;;;;21.25;19.00;;;;;20.46;79.78;100591.16;5077217;28;45329;-77
2022/08/17 04:44:13;;;;;;;;;20.25;16.75;;;;;20.44;80.01;100599.19;5077261;28;45377;-76
2022/08/17 04:46:39;;;;;;;;;22.00;20.25;;;;;20.41;79.77;100586.22;5077146;27;45387;-76
2022/08/17 04:49:07;;;;;;;;;21.00;18.00;;;;;20.41;79.71;100580.91;5075914;28;70365;-76
2022/08/17 04:51:45;;;;;;;;;20.25;16.75;;;;;20.38;79.91;100586.41;5076992;27;45515;-76
2022/08/17 04:54:15;;;;;;;;;23.50;18.75;;;;;20.38;79.99;100588.22;5076652;27;45342;-75
2022/08/17 04:56:41;;;;;;;;;22.75;20.25;;;;;20.37;79.91;100594.44;5076772;27;45415;-76
2022/08/17 04:59:09;;;;;;;;;21.25;18.75;;;;;20.36;79.55;100593.63;5076900;27;45329;-76
2022/08/17 05:01:37;;;;;;;;;17.50;16.75;;;;;20.31;79.68;100579.88;5076639;27;46401;-76
2022/08/17 05:04:11;;;;;;;;;17.25;15.25;;;;;20.29;80.02;100580.00;5076948;27;45408;-75
2022/08/17 05:06:36;;;;;;;;;21.50;18.00;;;;;20.27;80.09;100584.53;5076784;27;45439;-76
2022/08/17 05:09:02;;;;;;;;;22.00;19.00;;;;;20.29;80.35;100579.16;5076059;28;62948;-76
2022/08/17 05:11:28;;;;;;;;;19.75;18.50;;;;;20.30;80.18;100571.13;5058023;28;46763;-76
2022/08/17 05:13:55;;;;;;;;;22.50;22.50;;;;;20.31;79.76;100564.03;5075468;28;45405;-76
2022/08/17 05:16:22;;;;;;;;;21.25;17.00;;;;;20.31;80.08;100564.88;5075508;28;45287;-76
2022/08/17 05:18:48;;;;;;;;;22.00;20.25;;;;;20.34;79.94;100562.94;5076724;27;45501;-76
2022/08/17 05:21:14;;;;;;;;;20.50;16.75;;;;;20.34;79.93;100570.88;5075043;28;48304;-76
2022/08/17 05:23:40;;;;;;;;;18.00;16.25;;;;;20.30;79.37;100586.16;5076512;27;45293;-76
2022/08/17 05:26:06;;;;;;;;;26.00;22.25;;;;;20.31;79.85;100590.47;5074965;28;45364;-76
2022/08/17 05:28:31;;;;;;;;;22.75;21.00;;;;;20.31;79.97;100580.72;5076490;28;45333;-76
2022/08/17 05:31:00;;;;;;;;;19.25;17.75;;;;;20.38;79.74;100575.00;5076124;27;46351;-76
2022/08/17 05:33:27;;;;;;;;;20.25;19.00;;;;;20.40;80.10;100573.94;5075047;27;45165;-76
2022/08/17 05:35:55;;;;;;;;;27.00;25.00;;;;;20.41;79.97;100575.63;5075022;28;45493;-76
2022/08/17 05:38:22;;;;;;;;;22.25;17.00;;;;;20.39;80.02;100574.91;5075102;28;45469;-76
2022/08/17 05:40:48;;;;;;;;;21.75;20.75;;;;;20.43;80.21;100583.44;5074573;28;47413;-76
2022/08/17 05:43:16;;;;;;;;;24.75;20.75;;;;;20.46;80.48;100581.41;5074990;28;45769;-76
2022/08/17 05:46:16;;;;;;;;;22.25;18.00;;;;;20.52;79.95;100593.34;5075096;28;45420;-76
2022/08/17 05:48:53;;;;;;;;;24.00;17.50;;;;;20.55;79.92;100590.47;5075470;27;45419;-76
2022/08/17 05:51:54;;;;;;;;;27.50;22.75;;;;;20.59;80.13;100589.28;5074579;28;46656;-75
2022/08/17 05:54:25;;;;;;;;;22.75;20.75;;;;;20.67;79.98;100586.97;5074191;28;45863;-76
2022/08/17 05:57:32;;;;;;;;;28.25;22.75;;;;;20.78;80.02;100580.03;5076171;28;45305;-76
2022/08/17 06:00:07;;;;;;;;;22.75;22.00;;;;;20.83;80.23;100572.59;5053319;28;45532;-76
2022/08/17 06:03:02;;;;;;;;;24.25;20.00;;;;;20.90;79.62;100560.59;5036564;28;46435;-75
2022/08/17 06:05:57;;;;;;;;;26.50;22.00;;;;;20.96;78.96;100561.94;5053318;28;45475;-76
2022/08/17 06:08:32;;;;;;;;;28.00;25.00;;;;;20.99;78.65;100559.06;5053245;28;45342;-76
2022/08/17 06:11:18;;;;;;;;;28.25;25.50;;;;;21.05;78.68;100558.59;5036603;28;45463;-76
2022/08/17 06:13:55;;;;;;;;;24.25;23.25;;;;;21.10;78.57;100545.88;5053275;28;45483;-75
2022/08/17 06:16:25;;;;;;;;;26.25;20.50;;;;;21.16;78.49;100545.41;5053183;28;45453;-76
2022/08/17 06:19:05;;;;;;;;;28.50;27.75;;;;;21.22;78.15;100552.84;5036640;28;45336;-76
2022/08/17 06:21:37;;;;;;;;;28.25;26.50;;;;;21.27;78.03;100545.41;5036518;28;45521;-76
2022/08/17 06:24:06;;;;;;;;;36.25;29.50;;;;;21.35;78.71;100565.16;5035886;28;46403;-76
2022/08/17 06:26:35;;;;;;;;;28.00;26.25;;;;;21.37;78.21;100569.38;5036197;28;45609;-76
2022/08/17 06:29:07;;;;;;;;;43.75;31.00;;;;;21.46;78.42;100573.97;5036448;28;45568;-75
2022/08/17 06:31:35;;;;;;;;;29.25;26.25;;;;;21.52;78.12;100585.06;5072097;28;45301;-76
2022/08/17 06:34:04;;;;;;;;;24.00;23.00;;;;;21.56;77.54;100589.16;5074264;28;46457;-76
2022/08/17 06:37:07;;;;;;;;;25.50;24.00;;;;;21.59;77.08;100607.47;5073669;28;45977;-76
2022/08/17 06:40:30;;;;;;;;;34.00;26.75;;;;;21.68;77.74;100606.75;5075528;27;45686;-76
2022/08/17 06:43:39;;;;;;;;;30.00;24.50;;;;;21.77;77.67;100614.00;5053029;28;45514;-75
2022/08/17 06:46:28;;;;;;;;;27.25;21.75;;;;;21.76;74.65;100624.69;5042014;28;47565;-75
2022/08/17 06:49:24;;;;;;;;;21.50;19.50;;;;;21.69;74.28;100631.44;5052728;28;45793;-75
2022/08/17 06:51:59;;;;;;;;;23.25;20.25;;;;;21.65;75.05;100628.19;5050974;28;45395;-75
2022/08/17 06:54:40;;;;;;;;;25.00;22.50;;;;;21.62;73.27;100625.78;5052673;28;45505;-75
2022/08/17 06:57:13;;;;;;;;;23.50;22.25;;;;;21.62;74.05;100623.13;5035824;28;47191;-74
2022/08/17 06:59:59;;;;;;;;;23.50;19.75;;;;;21.62;74.52;100634.56;5037864;28;45966;-75
2022/08/17 07:02:54;;;;;;;;;20.50;17.25;;;;;21.64;73.43;100634.44;5056580;28;45438;-74
2022/08/17 07:05:22;;;;;;;;;22.00;20.00;;;;;21.62;73.59;100642.50;5046979;28;45434;-74
2022/08/17 07:08:02;;;;;;;;;23.75;20.00;;;;;21.65;74.86;100636.94;5055601;28;46248;-74
2022/08/17 07:10:37;;;;;;;;;21.25;20.50;;;;;21.75;74.61;100639.75;5056018;28;45855;-74
2022/08/17 07:13:22;;;;;;;;;29.75;23.00;;;;;21.81;74.46;100633.13;5045686;28;45474;-75
2022/08/17 07:15:48;;;;;;;;;22.00;20.25;;;;;21.88;74.60;100631.69;5077460;27;45397;-74
2022/08/17 07:18:14;;;;;;;;;22.00;19.75;;;;;21.92;72.36;100648.19;5076183;27;75565;-74
2022/08/17 07:20:42;;;;;;;;;25.00;19.50;;;;;21.88;72.36;100644.94;5077167;27;73301;-73
2022/08/17 07:23:25;;;;;;;;;22.00;19.75;;;;;21.84;72.21;100659.38;5077323;27;45403;-74
2022/08/17 07:25:50;;;;;;;;;20.75;19.50;;;;;21.81;71.80;100662.28;5077085;27;45513;-74
2022/08/17 07:28:21;;;;;;;;;20.00;17.50;;;;;21.82;72.36;100669.25;5078226;27;46325;-74
2022/08/17 07:30:50;;;;;;;;;21.25;18.50;;;;;21.79;72.31;100669.50;5076998;28;45470;-74
2022/08/17 07:33:35;;;;;;;;;21.00;19.25;;;;;21.91;72.51;100683.59;5077412;28;45444;-74
2022/08/17 07:36:01;;;;;;;;;17.50;15.00;;;;;21.92;71.40;100693.25;5077832;27;45373;-74
2022/08/17 07:38:29;;;;;;;;;23.50;21.25;;;;;21.91;71.40;100694.19;5078019;27;46122;-74
2022/08/17 07:41:02;;;;;;;;;21.75;19.00;;;;;21.91;72.59;100704.78;5077031;27;45870;-74
2022/08/17 07:43:39;;;;;;;;;22.00;19.00;;;;;21.88;72.00;100708.53;5078203;27;45331;-75
2022/08/17 07:49:19;;;;;;;;;20.00;18.50;;;;;21.87;71.56;100706.84;5077545;28;45439;-76
2022/08/17 07:51:49;;;;;;;;;20.75;18.25;;;;;21.85;72.17;100712.25;5074170;28;45301;-75
2022/08/17 07:54:14;;;;;;;;;20.00;18.00;;;;;21.83;71.21;100713.34;5079074;27;45489;-74
2022/08/17 07:57:07;;;;;;;;;16.33;15.67;;;;;21.77;71.19;100712.00;5078573;27;45435;-75
2022/08/17 07:59:34;;;;;;;;;23.50;16.00;;;;;21.69;71.00;100714.38;5077974;27;46147;-75
2022/08/17 08:02:15;;;;;;;;;21.25;19.25;;;;;21.64;71.48;100721.84;5076748;27;45448;-74
2022/08/17 08:04:45;;;;;;;;;18.50;18.50;;;;;21.61;71.94;100724.72;5078012;27;45382;-74
2022/08/17 08:07:16;;;;;;;;;20.00;17.75;;;;;21.57;71.21;100723.28;5077126;27;45322;-75
2022/08/17 08:09:45;;;;;;;;;20.25;16.00;;;;;21.55;71.83;100722.56;5077744;27;47074;-74
2022/08/17 08:12:32;;;;;;;;;20.25;17.75;;;;;21.49;70.72;100730.94;5076205;27;45409;-76
2022/08/17 08:15:48;;;;;;;;;20.50;16.00;;;;;21.42;71.22;100738.47;5078167;27;45346;-74
2022/08/17 08:18:33;;;;;;;;;17.75;14.75;;;;;21.40;71.36;100749.19;5055129;28;45648;-75
2022/08/17 08:21:08;;;;;;;;;20.00;17.50;;;;;21.36;71.54;100752.16;5038058;28;47506;-75
2022/08/17 08:23:46;;;;;;;;;22.75;15.50;;;;;21.33;71.71;100765.63;5038365;28;45444;-75
2022/08/17 08:26:27;;;;;;;;;18.75;15.50;;;;;21.30;71.60;100761.41;5038132;28;45371;-75
2022/08/17 08:29:04;;;;;;;;;19.75;17.00;;;;;21.33;71.82;100758.53;5054854;28;45500;-75
2022/08/17 08:32:06;;;;;;;;;23.00;19.50;;;;;21.34;71.66;100760.22;5054402;28;46354;-74
2022/08/17 08:34:44;;;;;;;;;20.00;18.25;;;;;21.33;72.25;100769.13;5054290;28;45519;-74
2022/08/17 08:37:26;;;;;;;;;22.25;20.00;;;;;21.32;71.63;100764.81;5054881;28;45465;-74
2022/08/17 08:39:52;;;;;;;;;23.25;16.75;;;;;21.33;71.92;100763.00;5054824;28;45380;-75
2022/08/17 08:42:25;;;;;;;;;22.67;17.67;;;;;21.42;72.16;100755.19;5054628;28;45480;-75
2022/08/17 08:45:08;;;;;;;;;19.75;18.50;;;;;21.56;72.68;100754.22;5054637;28;45821;-75
2022/08/17 08:47:59;;;;;;;;;20.75;18.50;;;;;21.72;71.78;100747.75;5037598;28;45478;-75
2022/08/17 08:50:46;;;;;;;;;19.25;18.25;;;;;21.83;71.69;100753.09;5075941;28;45443;-74
2022/08/17 08:53:26;;;;;;;;;22.00;19.25;;;;;21.88;70.48;100752.72;5076671;27;45570;-74
2022/08/17 08:55:59;;;;;;;;;18.50;15.00;;;;;21.95;70.28;100759.25;5076932;27;45881;-75
2022/08/17 08:58:24;;;;;;;;;17.00;15.75;;;;;21.97;69.99;100765.25;5075867;28;45356;-74
2022/08/17 09:00:53;;;;;;;;;21.00;19.67;;;;;22.00;69.85;100755.28;5076966;27;45478;-75
2022/08/17 09:03:31;;;;;;;;;23.00;20.50;;;;;22.06;69.22;100753.97;5075178;28;46443;-74
2022/08/17 09:06:16;;;;;;;;;21.75;17.25;;;;;22.12;69.40;100745.56;5075975;27;45334;-74
2022/08/17 09:08:47;;;;;;;;;22.25;18.75;;;;;22.20;70.00;100756.41;5077232;27;45295;-75
2022/08/17 09:11:27;;;;;;;;;23.50;17.75;;;;;22.24;69.13;100764.97;5076623;27;47182;-75
2022/08/17 09:14:00;;;;;;;;;21.75;21.00;;;;;22.24;69.68;100763.13;5075522;28;45995;-76
2022/08/17 09:16:29;;;;;;;;;20.00;17.75;;;;;22.21;69.45;100763.41;5076571;27;45391;-75
2022/08/17 09:19:15;;;;;;;;;22.50;19.75;;;;;22.27;70.15;100754.16;5077017;27;45415;-74
2022/08/17 09:21:45;;;;;;;;;22.50;17.75;;;;;22.31;69.90;100752.94;5076467;27;45605;-75
2022/08/17 09:24:35;;;;;;;;;17.75;17.00;;;;;22.25;68.95;100750.75;5075005;27;46491;-75
2022/08/17 09:27:07;;;;;;;;;21.00;18.75;;;;;22.16;69.44;100754.13;5076658;27;45884;-75
2022/08/17 09:29:38;;;;;;;;;18.75;17.50;;;;;22.13;70.22;100762.28;5076639;27;45357;-74
2022/08/17 09:32:33;;;;;;;;;20.75;19.50;;;;;22.12;70.45;100752.63;5076274;27;45362;-75
2022/08/17 09:35:11;;;;;;;;;22.50;19.25;;;;;22.13;70.45;100751.69;5075153;27;45465;-74
2022/08/17 09:37:50;;;;;;;;;19.00;19.00;;;;;22.16;70.51;100749.66;5075200;28;45367;-74
2022/08/17 09:40:24;;;;;;;;;20.25;19.50;;;;;22.16;69.90;100757.59;5075182;28;45559;-75
2022/08/17 09:43:14;;;;;;;;;27.00;20.75;;;;;22.14;70.84;100745.41;5075613;28;45353;-75
2022/08/17 09:45:53;;;;;;;;;19.50;18.50;;;;;22.14;70.00;100745.41;5075838;28;46115;-74
2022/08/17 09:48:23;;;;;;;;;18.75;17.50;;;;;22.12;69.57;100753.50;5075133;28;45793;-75
2022/08/17 09:51:02;;;;;;;;;19.50;17.00;;;;;22.06;69.04;100753.13;5075297;28;45290;-74
2022/08/17 09:53:29;;;;;;;;;20.25;19.00;;;;;22.01;69.91;100750.84;5074982;27;45270;-74
2022/08/17 09:56:28;;;;;;;;;20.75;19.00;;;;;22.02;70.42;100756.00;5076354;27;45478;-75
2022/08/17 09:59:19;;;;;;;;;23.50;20.00;;;;;22.06;70.03;100748.66;5073094;28;45266;-74
2022/08/17 10:01:54;;;;;;;;;19.50;17.50;;;;;22.11;70.53;100757.09;5075717;28;45352;-74
2022/08/17 10:04:35;;;;;;;;;26.00;20.00;;;;;22.18;70.99;100763.63;5074946;28;45400;-74
2022/08/17 10:07:18;;;;;;;;;23.00;22.75;;;;;22.23;71.30;100769.41;5075846;28;46159;-74
2022/08/17 10:09:58;;;;;;;;;22.50;21.50;;;;;22.28;70.85;100781.50;5074734;28;45378;-74
2022/08/17 10:12:45;;;;;;;;;25.25;21.75;;;;;22.31;69.81;100789.22;5074993;27;45424;-75
2022/08/17 10:15:21;;;;;;;;;22.25;21.75;;;;;22.31;69.89;100781.28;5075607;27;47341;-74
2022/08/17 10:18:06;;;;;;;;;25.00;21.00;;;;;22.38;71.03;100785.13;5074545;28;46142;-74
2022/08/17 10:20:44;;;;;;;;;23.50;21.25;;;;;22.48;71.29;100787.91;5075718;27;45923;-74
2022/08/17 10:26:12;;;;;;;;;26.75;22.75;;;;;22.53;69.67;100797.19;5075782;27;45380;-75
2022/08/17 10:28:52;;;;;;;;;22.25;21.50;;;;;22.55;69.51;100797.09;5074133;28;46057;-74
2022/08/17 10:31:26;;;;;;;;;24.75;20.75;;;;;22.59;69.89;100807.31;5074376;28;45410;-74
2022/08/17 10:34:01;;;;;;;;;26.00;19.50;;;;;22.61;69.35;100800.06;5075391;28;45279;-74
2022/08/17 10:36:41;;;;;;;;;23.00;20.75;;;;;22.64;69.74;100799.00;5078040;27;45533;-75
2022/08/17 10:39:21;;;;;;;;;23.50;23.50;;;;;22.72;69.38;100795.75;5077915;28;46314;-75
2022/08/17 10:41:51;;;;;;;;;24.50;21.50;;;;;22.84;68.67;100789.44;5079027;27;48024;-74
2022/08/17 10:44:34;;;;;;;;;25.25;22.50;;;;;22.96;68.80;100793.78;5077776;28;45448;-74
2022/08/17 10:47:13;;;;;;;;;23.25;20.00;;;;;23.10;69.17;100789.19;5077868;27;45355;-75
2022/08/17 10:49:48;;;;;;;;;23.25;22.75;;;;;23.20;68.12;100779.53;5077624;28;45555;-74
2022/08/17 10:52:20;;;;;;;;;25.00;22.75;;;;;23.17;67.05;100780.59;5079205;27;45336;-75
2022/08/17 10:54:47;;;;;;;;;24.00;21.50;;;;;23.09;66.75;100780.41;5079033;27;45601;-74
2022/08/17 10:57:30;;;;;;;;;23.25;19.75;;;;;23.04;67.90;100782.56;5078954;27;45360;-75
2022/08/17 11:00:19;;;;;;;;;25.00;20.25;;;;;23.03;67.17;100777.34;5078598;27;47503;-74
2022/08/17 11:02:51;;;;;;;;;24.50;21.50;;;;;23.04;67.12;100784.38;5056209;28;46046;-74
2022/08/17 11:05:16;;;;;;;;;24.75;22.25;;;;;23.03;66.72;100783.53;5039731;28;45524;-75
2022/08/17 11:08:11;;;;;;;;;20.67;19.00;;;;;23.01;67.11;100785.44;5056228;28;45444;-74
2022/08/17 11:10:55;;;;;;;;;27.00;22.00;;;;;;;;5039156;28;45515;-74
2022/08/17 11:13:34;;;;;;;;;23.00;21.00;;;;;22.96;66.16;100791.13;5055864;28;45854;-75
2022/08/17 11:16:20;;;;;;;;;23.75;20.00;;;;;23.00;67.71;100789.06;5056165;28;45406;-74
2022/08/17 11:18:54;;;;;;;;;20.25;17.75;;;;;23.13;67.74;100784.47;5039483;28;45441;-74
2022/08/17 11:21:40;;;;;;;;;23.75;20.50;;;;;23.25;66.75;100779.97;5055765;28;45469;-74
2022/08/17 11:24:15;;;;;;;;;19.75;19.00;;;;;23.39;66.03;100779.69;5039291;28;45411;-74
2022/08/17 11:26:59;;;;;;;;;27.00;22.50;;;;;23.62;66.90;100765.47;5055538;28;45554;-74
2022/08/17 11:29:32;;;;;;;;;24.25;21.25;;;;;24.00;66.53;100772.91;5055954;28;45419;-74
2022/08/17 11:32:13;;;;;;;;;23.50;21.00;;;;;24.61;64.96;100771.25;5038893;28;45418;-74
2022/08/17 11:34:40;;;;;;;;;22.25;21.75;;;;;25.12;64.54;100768.44;5039202;28;45927;-76
2022/08/17 11:37:27;;;;;;;;;23.25;19.00;;;;;25.53;63.57;100773.69;5056054;28;45427;-75
2022/08/17 11:39:53;;;;;;;;;22.25;20.50;;;;;25.92;61.97;100768.34;5068114;28;45367;-74
2022/08/17 11:42:24;;;;;;;;;24.75;20.00;;;;;26.35;62.06;100777.59;5077918;27;46655;-75
2022/08/17 11:44:57;;;;;;;;;24.00;21.50;;;;;26.71;60.68;100780.47;5077927;27;45376;-74
2022/08/17 11:53:40;;;;;;;;;21.75;21.50;;;;;34.72;49.96;100799.16;5077914;28;45329;-75
2022/08/17 11:56:09;;;;;;;;;24.00;22.00;;;;;34.17;39.82;100801.75;5077696;27;45234;-75
2022/08/17 11:58:40;;;;;;;;;24.00;20.50;;;;;32.95;41.88;100798.94;5076796;27;45496;-75
2022/08/17 12:01:08;;;;;;;;;23.00;19.75;;;;;32.64;43.19;100803.75;5076700;27;45288;-75